Time;durP1;ratioP1;P1;durP2;ratioP2;P2;SDS_P1;SDS_P2;PMS_P1;PMS_P2;Temp;Humidity;BMP_temperature;BMP_pressure;BME280_temperature;BME280_humidity;BME280_pressure;Samples;Min_cycle;Max_cycle;Signal;HPM_P1;HPM_P2
2023/05/26 00:01:54;;;;;;;6.68;2.60;;;;;;;;;;6234582;28;20485;-78
2023/05/26 00:05:01;;;;;;;6.97;2.83;;;;;;;;;;6235661;28;20296;-77
2023/05/26 00:08:08;;;;;;;7.57;2.17;;;;;;;;;;6234676;28;20296;-79
2023/05/26 00:11:15;;;;;;;7.10;2.35;;;;;;;;;;6232754;28;20312;-78
2023/05/26 00:14:21;;;;;;;7.15;2.30;;;;;;;;;;6233916;28;20296;-78
2023/05/26 00:17:26;;;;;;;11.50;2.83;;;;;;;;;;6234616;28;20580;-78
2023/05/26 00:20:32;;;;;;;10.30;2.60;;;;;;;;;;6234525;28;20296;-77
2023/05/26 00:23:37;;;;;;;6.03;2.30;;;;;;;;;;6235003;28;20295;-77
2023/05/26 00:26:44;;;;;;;6.05;2.15;;;;;;;;;;6234012;28;20296;-78
2023/05/26 00:29:49;;;;;;;4.43;2.03;;;;;;;;;;6232683;28;20304;-78
2023/05/26 00:32:57;;;;;;;3.45;2.05;;;;;;;;;;6235483;28;20288;-77
2023/05/26 00:36:02;;;;;;;5.20;2.45;;;;;;;;;;6239015;28;20479;-78
2023/05/26 00:39:08;;;;;;;2.95;2.30;;;;;;;;;;6238691;28;20300;-78
2023/05/26 00:42:14;;;;;;;6.00;2.40;;;;;;;;;;6238833;28;20303;-79
2023/05/26 00:45:19;;;;;;;3.50;1.85;;;;;;;;;;6237366;28;20302;-79
2023/05/26 00:48:25;;;;;;;9.63;2.30;;;;;;;;;;6238818;28;20303;-79
2023/05/26 00:51:31;;;;;;;4.45;2.10;;;;;;;;;;6237007;28;20304;-78
2023/05/26 00:54:36;;;;;;;7.38;2.20;;;;;;;;;;6238380;28;20308;-78
2023/05/26 00:57:43;;;;;;;5.20;2.13;;;;;;;;;;6237367;28;20288;-78
2023/05/26 01:00:48;;;;;;;6.15;2.10;;;;;;;;;;6236918;28;20308;-78
2023/05/26 01:03:54;;;;;;;6.32;2.10;;;;;;;;;;6238111;28;20584;-78
2023/05/26 01:07:00;;;;;;;6.60;2.13;;;;;;;;;;6239135;28;20291;-79
2023/05/26 01:10:06;;;;;;;4.35;2.00;;;;;;;;;;6238017;28;20304;-79
2023/05/26 01:13:16;;;;;;;4.43;2.00;;;;;;;;;;6238660;28;20289;-77
2023/05/26 01:16:24;;;;;;;8.73;2.38;;;;;;;;;;6236949;28;20592;-78
2023/05/26 01:20:06;;;;;;;8.20;2.30;;;;;;;;;;6237312;28;20301;-78
2023/05/26 01:23:46;;;;;;;6.05;2.40;;;;;;;;;;6236149;28;20297;-80
2023/05/26 01:27:04;;;;;;;10.38;2.58;;;;;;;;;;6237346;28;20288;-80
2023/05/26 01:30:14;;;;;;;6.20;2.08;;;;;;;;;;6237744;28;20308;-78
2023/05/26 01:33:19;;;;;;;7.15;2.25;;;;;;;;;;6236990;28;20292;-80
2023/05/26 01:36:25;;;;;;;9.48;2.50;;;;;;;;;;6237462;28;20296;-79
2023/05/26 01:39:31;;;;;;;7.75;2.30;;;;;;;;;;6236664;28;20297;-80
2023/05/26 01:42:40;;;;;;;9.48;2.13;;;;;;;;;;6236756;28;20481;-78
2023/05/26 01:46:01;;;;;;;4.32;2.40;;;;;;;;;;6236692;28;20300;-79
2023/05/26 01:49:08;;;;;;;13.48;2.40;;;;;;;;;;6236035;28;20292;-78
2023/05/26 01:52:15;;;;;;;6.18;2.20;;;;;;;;;;6237673;28;20316;-78
2023/05/26 01:55:21;;;;;;;6.45;2.40;;;;;;;;;;6237336;28;20297;-79
2023/05/26 01:58:27;;;;;;;3.83;2.17;;;;;;;;;;6235008;28;20269;-77
2023/05/26 02:01:35;;;;;;;7.78;2.13;;;;;;;;;;6235704;28;20304;-77
2023/05/26 02:04:41;;;;;;;8.88;2.17;;;;;;;;;;6235188;28;20288;-78
2023/05/26 02:07:47;;;;;;;4.65;2.28;;;;;;;;;;6237408;28;20580;-79
2023/05/26 02:10:53;;;;;;;14.27;2.30;;;;;;;;;;6235219;28;20292;-78
2023/05/26 02:13:58;;;;;;;5.35;2.58;;;;;;;;;;6235665;28;20292;-79
2023/05/26 02:17:06;;;;;;;8.50;2.30;;;;;;;;;;6235713;28;20295;-80
2023/05/26 02:20:13;;;;;;;7.38;2.10;;;;;;;;;;6235426;28;20308;-78
2023/05/26 02:23:18;;;;;;;11.82;2.47;;;;;;;;;;6236017;28;20481;-79
2023/05/26 02:26:23;;;;;;;8.40;2.40;;;;;;;;;;6235394;28;20300;-78
2023/05/26 02:29:29;;;;;;;8.35;2.50;;;;;;;;;;6236289;28;20292;-78
2023/05/26 02:32:36;;;;;;;7.25;2.28;;;;;;;;;;6237096;28;20576;-79
2023/05/26 02:35:44;;;;;;;8.82;2.20;;;;;;;;;;6237522;28;20301;-78
2023/05/26 02:38:50;;;;;;;7.82;2.15;;;;;;;;;;6235900;28;20288;-77
2023/05/26 02:41:55;;;;;;;15.40;2.58;;;;;;;;;;6234956;28;20323;-77
2023/05/26 02:45:00;;;;;;;5.35;2.15;;;;;;;;;;6234758;28;20289;-78
2023/05/26 02:48:08;;;;;;;7.03;2.38;;;;;;;;;;6235990;28;20305;-78
2023/05/26 02:51:13;;;;;;;4.97;2.47;;;;;;;;;;6234322;28;20300;-78
2023/05/26 02:54:18;;;;;;;5.35;2.30;;;;;;;;;;6236042;28;20287;-77
2023/05/26 02:57:23;;;;;;;9.35;2.60;;;;;;;;;;6237502;28;20357;-80
2023/05/26 03:00:29;;;;;;;5.28;1.85;;;;;;;;;;6234510;28;20303;-77
2023/05/26 03:03:35;;;;;;;2.83;1.90;;;;;;;;;;6231113;28;20316;-79
2023/05/26 03:06:41;;;;;;;3.83;2.20;;;;;;;;;;6236146;28;20292;-78
2023/05/26 03:09:48;;;;;;;14.68;3.45;;;;;;;;;;6234199;28;20300;-78
2023/05/26 03:12:54;;;;;;;6.35;2.65;;;;;;;;;;6235276;28;20296;-79
2023/05/26 03:16:01;;;;;;;3.70;2.17;;;;;;;;;;6234831;28;20297;-79
2023/05/26 03:19:08;;;;;;;6.13;1.90;;;;;;;;;;6235709;28;20384;-79
2023/05/26 03:22:13;;;;;;;6.03;2.25;;;;;;;;;;6234630;28;20490;-79
2023/05/26 03:25:38;;;;;;;5.47;2.08;;;;;;;;;;6233300;28;20300;-79
2023/05/26 03:28:43;;;;;;;4.82;2.15;;;;;;;;;;6233981;28;20297;-78
2023/05/26 03:31:49;;;;;;;6.60;2.88;;;;;;;;;;6234835;28;20315;-79
2023/05/26 03:34:56;;;;;;;4.78;2.30;;;;;;;;;;6234116;28;20304;-77
2023/05/26 03:38:01;;;;;;;5.95;2.03;;;;;;;;;;6233449;28;20296;-79
2023/05/26 03:41:06;;;;;;;5.43;2.40;;;;;;;;;;6234565;28;20296;-77
2023/05/26 03:44:21;;;;;;;2.70;1.77;;;;;;;;;;6233260;28;20292;-78
2023/05/26 03:47:26;;;;;;;16.90;2.65;;;;;;;;;;6235109;28;20465;-79
2023/05/26 03:50:33;;;;;;;9.70;2.30;;;;;;;;;;6233501;28;20297;-77
2023/05/26 03:53:38;;;;;;;5.53;2.20;;;;;;;;;;6234537;28;20296;-78
2023/05/26 03:56:44;;;;;;;9.65;2.00;;;;;;;;;;6235292;28;20292;-78
2023/05/26 03:59:49;;;;;;;6.90;2.45;;;;;;;;;;6235569;28;20296;-78
2023/05/26 04:02:55;;;;;;;6.78;2.20;;;;;;;;;;6233771;28;20312;-78
2023/05/26 04:06:01;;;;;;;2.55;2.15;;;;;;;;;;6233614;28;20501;-79
2023/05/26 04:09:07;;;;;;;4.07;1.77;;;;;;;;;;6237698;28;20296;-77
2023/05/26 04:12:13;;;;;;;2.80;2.00;;;;;;;;;;6239370;28;20480;-78
2023/05/26 04:15:19;;;;;;;5.78;2.15;;;;;;;;;;6238221;28;20285;-78
2023/05/26 04:18:25;;;;;;;5.22;1.92;;;;;;;;;;6239388;28;20286;-78
2023/05/26 04:21:32;;;;;;;6.65;2.10;;;;;;;;;;6240279;28;20307;-79
2023/05/26 04:24:37;;;;;;;4.63;2.10;;;;;;;;;;6239337;28;20300;-78
2023/05/26 04:27:43;;;;;;;4.70;1.90;;;;;;;;;;6238913;28;20300;-79
2023/05/26 04:31:03;;;;;;;7.22;1.60;;;;;;;;;;6237276;28;20296;-77
2023/05/26 04:34:26;;;;;;;7.22;1.90;;;;;;;;;;6236869;28;20296;-77
2023/05/26 04:37:42;;;;;;;4.20;1.98;;;;;;;;;;6238284;28;20453;-80
2023/05/26 04:40:48;;;;;;;5.55;1.63;;;;;;;;;;6238182;28;20297;-78
2023/05/26 04:43:54;;;;;;;3.80;1.70;;;;;;;;;;6237865;28;20305;-79
2023/05/26 04:47:00;;;;;;;3.50;2.10;;;;;;;;;;6239923;28;20306;-79
2023/05/26 04:50:12;;;;;;;4.32;1.70;;;;;;;;;;6237444;28;20288;-79
2023/05/26 04:53:19;;;;;;;2.35;1.70;;;;;;;;;;6238035;28;20295;-78
2023/05/26 04:56:26;;;;;;;3.08;1.52;;;;;;;;;;6239987;28;20297;-78
2023/05/26 04:59:37;;;;;;;1.95;1.10;;;;;;;;;;6237669;28;20309;-79
2023/05/26 05:02:43;;;;;;;5.88;1.40;;;;;;;;;;6238737;28;20391;-78
2023/05/26 05:05:54;;;;;;;1.40;1.30;;;;;;;;;;6237077;28;20607;-77
2023/05/26 05:09:01;;;;;;;9.65;1.23;;;;;;;;;;6237122;28;20608;-79
2023/05/26 05:12:08;;;;;;;3.45;1.40;;;;;;;;;;6237795;28;20243;-78
2023/05/26 05:15:14;;;;;;;4.53;1.25;;;;;;;;;;6236991;28;20490;-78
2023/05/26 05:18:20;;;;;;;15.10;1.65;;;;;;;;;;6236393;28;20288;-79
2023/05/26 05:21:25;;;;;;;3.45;1.40;;;;;;;;;;6237966;28;20292;-79
2023/05/26 05:24:35;;;;;;;2.17;1.90;;;;;;;;;;6237458;28;20295;-79
2023/05/26 05:27:40;;;;;;;2.78;1.15;;;;;;;;;;6237314;28;20288;-78
2023/05/26 05:30:46;;;;;;;10.73;1.50;;;;;;;;;;6236760;28;20404;-78
2023/05/26 05:33:51;;;;;;;1.58;1.20;;;;;;;;;;6236552;28;20304;-77
2023/05/26 05:36:57;;;;;;;1.48;1.13;;;;;;;;;;6237092;28;20311;-78
2023/05/26 05:40:04;;;;;;;2.17;1.20;;;;;;;;;;6236124;28;20304;-78
2023/05/26 05:43:09;;;;;;;1.27;1.27;;;;;;;;;;6236049;28;20292;-79
2023/05/26 05:46:15;;;;;;;4.20;1.52;;;;;;;;;;6237081;28;20304;-78
2023/05/26 05:49:46;;;;;;;1.27;1.00;;;;;;;;;;6228409;28;20301;-78
2023/05/26 05:52:52;;;;;;;2.30;1.30;;;;;;;;;;6213253;28;20586;-80
2023/05/26 05:56:00;;;;;;;2.08;1.38;;;;;;;;;;6230835;28;20297;-79
2023/05/26 05:59:10;;;;;;;7.00;1.30;;;;;;;;;;6214613;28;20335;-80
2023/05/26 06:02:16;;;;;;;3.25;1.23;;;;;;;;;;6211422;28;20312;-78
2023/05/26 06:05:21;;;;;;;4.75;1.40;;;;;;;;;;6222894;28;20293;-79
2023/05/26 06:08:27;;;;;;;3.70;1.27;;;;;;;;;;6216367;28;20467;-80
2023/05/26 06:11:34;;;;;;;1.38;1.30;;;;;;;;;;6254090;28;20300;-78
2023/05/26 06:14:40;;;;;;;2.70;1.27;;;;;;;;;;6259767;28;20300;-78
2023/05/26 06:17:45;;;;;;;6.07;3.03;;;;;;;;;;6260061;28;20283;-80
2023/05/26 06:20:51;;;;;;;2.13;1.30;;;;;;;;;;6259879;28;20299;-79
2023/05/26 06:23:56;;;;;;;3.47;1.50;;;;;;;;;;6260956;28;20319;-79
2023/05/26 06:27:04;;;;;;;1.40;1.30;;;;;;;;;;6260069;28;20296;-79
2023/05/26 06:30:11;;;;;;;3.28;1.40;;;;;;;;;;6258232;28;20300;-79
2023/05/26 06:33:18;;;;;;;1.73;1.60;;;;;;;;;;6259057;28;20588;-78
2023/05/26 06:36:23;;;;;;;11.23;1.33;;;;;;;;;;6262361;28;20425;-79
2023/05/26 06:39:30;;;;;;;8.85;1.55;;;;;;;;;;6259113;28;20304;-77
2023/05/26 06:42:37;;;;;;;2.30;1.45;;;;;;;;;;6259473;28;20303;-78
2023/05/26 06:45:42;;;;;;;3.70;1.50;;;;;;;;;;6242812;28;20367;-78
2023/05/26 06:48:47;;;;;;;3.75;1.60;;;;;;;;;;6215021;28;20305;-77
2023/05/26 06:52:01;;;;;;;3.03;1.20;;;;;;;;;;6210765;28;20297;-77
2023/05/26 06:55:06;;;;;;;4.13;2.03;;;;;;;;;;6209855;28;20376;-78
2023/05/26 06:58:15;;;;;;;3.55;1.30;;;;;;;;;;6209702;28;20500;-77
2023/05/26 07:01:21;;;;;;;3.97;2.35;;;;;;;;;;6210329;28;20292;-77
2023/05/26 07:04:27;;;;;;;1.50;1.50;;;;;;;;;;6232319;28;20304;-77
2023/05/26 07:07:32;;;;;;;1.27;1.27;;;;;;;;;;6211111;28;20261;-77
2023/05/26 07:10:38;;;;;;;4.63;1.40;;;;;;;;;;6210655;28;20313;-78
2023/05/26 07:13:45;;;;;;;4.88;1.40;;;;;;;;;;6212851;28;20296;-77
2023/05/26 07:16:51;;;;;;;1.83;1.23;;;;;;;;;;6209742;28;20305;-77
2023/05/26 07:19:56;;;;;;;3.22;1.55;;;;;;;;;;6220649;28;20301;-77
2023/05/26 07:23:02;;;;;;;4.25;1.63;;;;;;;;;;6209390;28;20300;-76
2023/05/26 07:26:08;;;;;;;5.10;1.50;;;;;;;;;;6228509;28;20289;-77
2023/05/26 07:29:14;;;;;;;5.03;1.25;;;;;;;;;;6212234;28;20600;-76
2023/05/26 07:32:20;;;;;;;3.13;1.75;;;;;;;;;;6209884;28;20292;-77
2023/05/26 07:35:25;;;;;;;8.23;1.42;;;;;;;;;;6220016;28;20296;-76
2023/05/26 07:38:31;;;;;;;5.32;1.42;;;;;;;;;;6212735;28;20376;-78
2023/05/26 07:41:37;;;;;;;3.60;1.52;;;;;;;;;;6224572;28;20305;-77
2023/05/26 07:44:43;;;;;;;3.50;1.30;;;;;;;;;;6213490;28;20375;-77
2023/05/26 07:47:48;;;;;;;4.00;1.30;;;;;;;;;;6210381;28;20551;-76
2023/05/26 07:50:53;;;;;;;2.65;1.15;;;;;;;;;;6210288;28;20305;-77
2023/05/26 07:53:59;;;;;;;10.27;1.65;;;;;;;;;;6210315;28;20301;-76
2023/05/26 07:57:05;;;;;;;3.25;1.33;;;;;;;;;;6210640;28;20325;-76
2023/05/26 08:00:24;;;;;;;1.58;1.05;;;;;;;;;;6210062;28;20301;-76
2023/05/26 08:03:29;;;;;;;2.83;1.30;;;;;;;;;;6209077;28;20293;-78
2023/05/26 08:06:35;;;;;;;1.77;1.25;;;;;;;;;;6210477;28;20288;-76
2023/05/26 08:09:40;;;;;;;7.90;1.77;;;;;;;;;;6209612;28;20293;-79
2023/05/26 08:12:45;;;;;;;5.00;1.13;;;;;;;;;;6209845;28;20338;-77
2023/05/26 08:15:52;;;;;;;11.75;1.50;;;;;;;;;;6213298;28;20400;-77
2023/05/26 08:18:57;;;;;;;5.65;2.10;;;;;;;;;;6217583;28;20305;-78
2023/05/26 08:22:03;;;;;;;19.23;1.50;;;;;;;;;;6213936;28;20533;-78
2023/05/26 08:25:08;;;;;;;1.55;0.90;;;;;;;;;;6227205;28;20304;-77
2023/05/26 08:28:13;;;;;;;5.97;1.33;;;;;;;;;;6212851;28;20305;-77
2023/05/26 08:31:20;;;;;;;10.38;1.40;;;;;;;;;;6213213;28;20293;-77
2023/05/26 08:34:26;;;;;;;3.50;1.52;;;;;;;;;;6221516;28;20372;-78
2023/05/26 08:37:31;;;;;;;1.58;1.05;;;;;;;;;;6210030;28;20265;-78
2023/05/26 08:40:36;;;;;;;3.55;1.00;;;;;;;;;;6229439;28;20316;-77
2023/05/26 08:43:46;;;;;;;7.97;1.23;;;;;;;;;;6211946;28;20337;-78
2023/05/26 08:47:07;;;;;;;12.63;1.10;;;;;;;;;;6186029;28;20294;-77
2023/05/26 08:50:13;;;;;;;1.08;0.93;;;;;;;;;;6197132;28;20314;-77
2023/05/26 08:53:20;;;;;;;3.65;0.90;;;;;;;;;;6189243;28;20289;-78
2023/05/26 08:56:25;;;;;;;6.20;0.90;;;;;;;;;;6206760;28;20321;-76
2023/05/26 08:59:31;;;;;;;3.30;0.82;;;;;;;;;;6190091;28;20297;-78
2023/05/26 09:02:37;;;;;;;5.80;0.98;;;;;;;;;;6190607;28;20593;-78
2023/05/26 09:05:43;;;;;;;1.10;1.00;;;;;;;;;;6200991;28;20488;-78
2023/05/26 09:08:48;;;;;;;5.55;1.08;;;;;;;;;;6195765;28;20289;-78
2023/05/26 09:11:56;;;;;;;2.13;1.02;;;;;;;;;;6256002;28;20287;-78
2023/05/26 09:15:02;;;;;;;3.85;1.10;;;;;;;;;;6262032;28;20489;-78
2023/05/26 09:18:11;;;;;;;6.03;1.08;;;;;;;;;;6262386;28;20307;-78
2023/05/26 09:21:18;;;;;;;1.27;1.17;;;;;;;;;;6263017;28;20311;-78
2023/05/26 09:24:25;;;;;;;5.20;1.17;;;;;;;;;;6261630;28;20307;-77
2023/05/26 09:27:30;;;;;;;14.55;1.50;;;;;;;;;;6261112;28;20296;-77
2023/05/26 09:30:37;;;;;;;5.57;1.30;;;;;;;;;;6261378;28;20303;-78
2023/05/26 09:33:47;;;;;;;4.28;1.00;;;;;;;;;;6262496;28;20307;-78
2023/05/26 09:36:52;;;;;;;2.67;1.00;;;;;;;;;;6262166;28;20295;-78
2023/05/26 09:40:06;;;;;;;2.15;1.00;;;;;;;;;;6261820;28;20296;-78
2023/05/26 09:43:12;;;;;;;3.58;1.08;;;;;;;;;;6260523;28;20303;-77
2023/05/26 09:46:22;;;;;;;1.38;0.80;;;;;;;;;;6243370;28;20281;-78
2023/05/26 09:49:29;;;;;;;0.95;0.95;;;;;;;;;;6235389;28;20612;-77
2023/05/26 09:52:35;;;;;;;2.40;1.45;;;;;;;;;;6215525;28;20269;-78
2023/05/26 09:55:43;;;;;;;3.78;1.20;;;;;;;;;;6213123;28;20297;-80
2023/05/26 09:58:49;;;;;;;1.58;1.00;;;;;;;;;;6210812;28;20566;-80
2023/05/26 10:01:55;;;;;;;3.75;1.13;;;;;;;;;;6212260;28;20305;-77
2023/05/26 10:05:01;;;;;;;1.48;1.38;;;;;;;;;;6212830;28;20302;-77
2023/05/26 10:08:07;;;;;;;2.75;1.70;;;;;;;;;;6211830;28;20296;-77
2023/05/26 10:11:14;;;;;;;1.40;1.30;;;;;;;;;;6212505;28;20285;-75
2023/05/26 10:14:19;;;;;;;1.67;0.80;;;;;;;;;;6214882;28;20554;-80
2023/05/26 10:17:25;;;;;;;2.65;1.10;;;;;;;;;;6212073;28;20325;-79
2023/05/26 10:20:34;;;;;;;3.30;1.13;;;;;;;;;;6221786;28;20376;-77
2023/05/26 10:23:44;;;;;;;1.10;1.10;;;;;;;;;;6216436;28;20288;-77
2023/05/26 10:26:55;;;;;;;2.83;1.10;;;;;;;;;;6225380;28;20301;-78
2023/05/26 10:30:08;;;;;;;5.68;0.90;;;;;;;;;;6214419;28;20609;-75
2023/05/26 10:33:15;;;;;;;0.85;0.85;;;;;;;;;;6213253;28;20617;-74
2023/05/26 10:36:21;;;;;;;7.32;0.95;;;;;;;;;;6221441;28;20305;-76
2023/05/26 10:39:27;;;;;;;3.90;1.02;;;;;;;;;;6222662;28;20303;-76
2023/05/26 10:42:32;;;;;;;1.38;1.00;;;;;;;;;;6219415;28;20293;-81
2023/05/26 10:45:44;;;;;;;1.02;0.98;;;;;;;;;;6215110;28;20320;-74
2023/05/26 10:48:57;;;;;;;4.50;1.33;;;;;;;;;;6211292;28;20597;-75
2023/05/26 10:52:10;;;;;;;2.30;1.02;;;;;;;;;;6211620;28;20310;-77
2023/05/26 10:55:30;;;;;;;2.05;1.02;;;;;;;;;;6211035;28;20380;-80
2023/05/26 10:58:37;;;;;;;4.10;1.10;;;;;;;;;;6232993;28;20541;-78
2023/05/26 11:01:51;;;;;;;2.85;0.90;;;;;;;;;;6210981;28;20268;-81
2023/05/26 11:04:56;;;;;;;0.70;0.70;;;;;;;;;;6211074;28;20298;-81
2023/05/26 11:08:03;;;;;;;10.70;1.10;;;;;;;;;;6210280;28;20301;-75
2023/05/26 11:11:10;;;;;;;0.77;0.77;;;;;;;;;;6211451;28;20309;-75
2023/05/26 11:14:16;;;;;;;1.05;1.05;;;;;;;;;;6210697;28;20313;-78
2023/05/26 11:17:22;;;;;;;1.45;0.80;;;;;;;;;;6211073;28;20304;-80
2023/05/26 11:20:28;;;;;;;1.05;1.00;;;;;;;;;;6210815;28;20305;-79
2023/05/26 11:23:37;;;;;;;0.88;0.85;;;;;;;;;;6210533;28;20289;-80
2023/05/26 11:26:43;;;;;;;1.60;1.00;;;;;;;;;;6211419;28;20483;-79
2023/05/26 11:29:49;;;;;;;3.00;0.90;;;;;;;;;;6210835;28;20296;-80
2023/05/26 11:32:54;;;;;;;1.10;0.95;;;;;;;;;;6211171;28;20293;-78
2023/05/26 11:36:07;;;;;;;2.53;0.90;;;;;;;;;;6210213;28;20296;-77
2023/05/26 11:39:15;;;;;;;0.88;0.80;;;;;;;;;;6210539;28;20297;-79
2023/05/26 11:42:20;;;;;;;2.55;1.10;;;;;;;;;;6211196;28;20293;-76
2023/05/26 11:45:25;;;;;;;2.78;1.23;;;;;;;;;;6210580;28;20293;-77
2023/05/26 11:48:39;;;;;;;1.75;0.98;;;;;;;;;;6215502;28;20300;-77
2023/05/26 11:51:48;;;;;;;3.55;0.80;;;;;;;;;;6216933;28;20289;-77
2023/05/26 11:54:54;;;;;;;1.00;1.00;;;;;;;;;;6225219;28;20304;-77
2023/05/26 11:58:00;;;;;;;1.58;1.35;;;;;;;;;;6214071;28;20289;-77
2023/05/26 12:01:06;;;;;;;4.80;0.65;;;;;;;;;;6209752;28;20296;-77
2023/05/26 12:04:11;;;;;;;3.92;0.80;;;;;;;;;;6219138;28;20300;-77
2023/05/26 12:07:30;;;;;;;3.00;0.98;;;;;;;;;;6210158;28;20473;-76
2023/05/26 12:10:39;;;;;;;0.70;0.70;;;;;;;;;;6238611;28;20312;-78
2023/05/26 12:13:44;;;;;;;3.83;0.93;;;;;;;;;;6259235;28;20467;-78
2023/05/26 12:16:51;;;;;;;3.05;0.90;;;;;;;;;;6259228;28;20295;-78
2023/05/26 12:19:57;;;;;;;1.13;1.05;;;;;;;;;;6258925;28;20467;-78
2023/05/26 12:23:02;;;;;;;2.95;1.10;;;;;;;;;;6258481;28;20584;-76
2023/05/26 12:26:23;;;;;;;3.55;1.10;;;;;;;;;;6258743;28;20291;-77
2023/05/26 12:29:28;;;;;;;0.88;0.88;;;;;;;;;;6261645;28;20296;-77
2023/05/26 12:32:34;;;;;;;7.22;1.08;;;;;;;;;;6263910;28;20307;-79
2023/05/26 12:35:39;;;;;;;3.30;0.70;;;;;;;;;;6263779;28;20291;-78
2023/05/26 12:38:44;;;;;;;0.90;0.90;;;;;;;;;;6262205;28;20413;-77
2023/05/26 12:41:51;;;;;;;3.10;0.80;;;;;;;;;;6263985;28;20305;-76
2023/05/26 12:44:56;;;;;;;0.90;0.90;;;;;;;;;;6253786;28;20319;-77
2023/05/26 12:48:01;;;;;;;0.95;0.90;;;;;;;;;;6226163;28;20581;-78
2023/05/26 12:51:07;;;;;;;1.92;0.93;;;;;;;;;;6239279;28;20292;-78
2023/05/26 12:54:13;;;;;;;5.82;1.45;;;;;;;;;;6239645;28;20288;-77
2023/05/26 12:57:20;;;;;;;3.95;1.30;;;;;;;;;;6223276;28;20297;-77
2023/05/26 13:00:25;;;;;;;1.08;0.98;;;;;;;;;;6214362;28;20293;-79
2023/05/26 13:03:30;;;;;;;0.85;0.85;;;;;;;;;;6213971;28;20375;-77
2023/05/26 13:06:36;;;;;;;1.35;0.98;;;;;;;;;;6214563;28;20296;-77
2023/05/26 13:09:42;;;;;;;4.38;1.00;;;;;;;;;;6213695;28;20466;-78
2023/05/26 13:12:49;;;;;;;7.05;1.40;;;;;;;;;;6214484;28;20289;-77
2023/05/26 13:15:54;;;;;;;0.98;0.90;;;;;;;;;;6216425;28;20566;-77
2023/05/26 13:18:59;;;;;;;1.75;0.90;;;;;;;;;;6221190;28;20300;-78
2023/05/26 13:22:05;;;;;;;0.90;0.90;;;;;;;;;;6217182;28;20304;-78
2023/05/26 13:25:10;;;;;;;1.08;0.80;;;;;;;;;;6229847;28;20292;-79
2023/05/26 13:28:17;;;;;;;1.95;0.98;;;;;;;;;;6216309;28;20309;-77
2023/05/26 13:31:23;;;;;;;1.30;1.20;;;;;;;;;;6214294;28;20296;-77
2023/05/26 13:34:28;;;;;;;3.80;0.90;;;;;;;;;;6222831;28;20634;-78
2023/05/26 13:37:34;;;;;;;2.35;1.13;;;;;;;;;;6213664;28;20292;-77
2023/05/26 13:40:39;;;;;;;0.80;0.80;;;;;;;;;;6230748;28;20301;-78
2023/05/26 13:43:48;;;;;;;2.85;1.00;;;;;;;;;;6215859;28;20289;-78
2023/05/26 13:46:53;;;;;;;3.13;0.90;;;;;;;;;;6214054;28;20301;-78
2023/05/26 13:49:58;;;;;;;2.83;1.17;;;;;;;;;;6214034;28;20297;-78
2023/05/26 13:53:24;;;;;;;1.08;1.08;;;;;;;;;;6213567;28;20333;-80
2023/05/26 13:56:30;;;;;;;4.38;1.00;;;;;;;;;;6213056;28;20585;-77
2023/05/26 13:59:36;;;;;;;7.55;1.40;;;;;;;;;;6213394;28;20297;-80
2023/05/26 14:02:41;;;;;;;5.28;1.00;;;;;;;;;;6211974;28;20333;-79
2023/05/26 14:05:47;;;;;;;3.63;0.90;;;;;;;;;;6213189;28;20297;-79
2023/05/26 14:08:53;;;;;;;1.08;1.08;;;;;;;;;;6211632;28;20293;-78
2023/05/26 14:11:58;;;;;;;1.02;1.02;;;;;;;;;;6212847;28;20289;-79
2023/05/26 14:15:05;;;;;;;1.65;1.55;;;;;;;;;;6214891;28;20553;-78
2023/05/26 14:18:14;;;;;;;1.00;1.00;;;;;;;;;;6214580;28;20465;-78
2023/05/26 14:21:19;;;;;;;1.02;1.00;;;;;;;;;;6221855;28;20293;-79
2023/05/26 14:24:44;;;;;;;2.78;1.33;;;;;;;;;;6226290;28;20300;-78
2023/05/26 14:27:50;;;;;;;7.70;1.38;;;;;;;;;;6218753;28;20296;-78
2023/05/26 14:30:57;;;;;;;1.08;0.93;;;;;;;;;;6215384;28;20293;-78
2023/05/26 14:34:03;;;;;;;1.00;0.90;;;;;;;;;;6220677;28;20304;-79
2023/05/26 14:37:08;;;;;;;4.47;1.00;;;;;;;;;;6216534;28;20432;-79
2023/05/26 14:40:14;;;;;;;1.30;1.17;;;;;;;;;;6231107;28;20300;-78
2023/05/26 14:43:20;;;;;;;1.10;1.00;;;;;;;;;;6215791;28;20301;-77
2023/05/26 14:46:26;;;;;;;4.75;1.00;;;;;;;;;;6233065;28;20272;-77
2023/05/26 14:49:32;;;;;;;3.53;0.90;;;;;;;;;;6236326;28;20299;-78
2023/05/26 14:52:38;;;;;;;3.85;1.17;;;;;;;;;;6236185;28;20265;-78
2023/05/26 14:55:43;;;;;;;6.90;1.23;;;;;;;;;;6236533;28;20297;-80
2023/05/26 14:58:48;;;;;;;7.40;1.10;;;;;;;;;;6235733;28;20464;-80
2023/05/26 15:01:55;;;;;;;4.57;1.08;;;;;;;;;;6236517;28;20312;-78
2023/05/26 15:05:00;;;;;;;2.63;1.00;;;;;;;;;;6236080;28;20293;-80
2023/05/26 15:08:06;;;;;;;3.47;1.25;;;;;;;;;;6235781;28;20360;-78
2023/05/26 15:11:12;;;;;;;2.83;1.25;;;;;;;;;;6222836;28;20298;-79
2023/05/26 15:14:17;;;;;;;7.03;1.20;;;;;;;;;;6214170;28;20337;-79
2023/05/26 15:17:24;;;;;;;2.10;0.90;;;;;;;;;;6211876;28;20304;-79
2023/05/26 15:20:32;;;;;;;8.57;1.00;;;;;;;;;;6222336;28;20313;-78
2023/05/26 15:23:37;;;;;;;6.07;1.75;;;;;;;;;;6216071;28;20296;-78
2023/05/26 15:26:42;;;;;;;0.98;0.90;;;;;;;;;;6225116;28;20292;-79
2023/05/26 15:29:48;;;;;;;9.55;1.02;;;;;;;;;;6213751;28;20309;-79
2023/05/26 15:32:55;;;;;;;2.95;1.23;;;;;;;;;;6211495;28;20588;-79
2023/05/26 15:36:00;;;;;;;3.67;1.40;;;;;;;;;;6223097;28;20289;-79
2023/05/26 15:39:05;;;;;;;2.38;1.30;;;;;;;;;;6220070;28;20637;-79
2023/05/26 15:42:11;;;;;;;3.65;1.55;;;;;;;;;;6222402;28;20296;-80
2023/05/26 15:45:17;;;;;;;3.60;2.72;;;;;;;;;;6214292;28;20300;-79
2023/05/26 15:48:24;;;;;;;3.80;2.70;;;;;;;;;;6211330;28;20305;-79
2023/05/26 15:51:29;;;;;;;3.70;1.38;;;;;;;;;;6211465;28;20297;-78
2023/05/26 15:54:34;;;;;;;6.63;1.20;;;;;;;;;;6212035;28;20297;-78
2023/05/26 15:57:39;;;;;;;1.75;1.20;;;;;;;;;;6210957;28;20296;-79
2023/05/26 16:00:44;;;;;;;18.85;2.45;;;;;;;;;;6210359;28;20332;-78
2023/05/26 16:03:51;;;;;;;1.95;1.30;;;;;;;;;;6209976;28;20293;-79
2023/05/26 16:06:56;;;;;;;2.08;1.00;;;;;;;;;;6212740;28;20593;-78
2023/05/26 16:10:01;;;;;;;5.00;1.25;;;;;;;;;;6209408;28;20297;-79
2023/05/26 16:13:07;;;;;;;1.58;0.90;;;;;;;;;;6210890;28;20292;-79
2023/05/26 16:16:12;;;;;;;5.07;1.40;;;;;;;;;;6212736;28;20293;-78
2023/05/26 16:19:19;;;;;;;4.45;1.30;;;;;;;;;;6220904;28;20296;-79
2023/05/26 16:22:24;;;;;;;2.47;1.30;;;;;;;;;;6236131;28;20296;-78
2023/05/26 16:25:29;;;;;;;2.15;1.27;;;;;;;;;;6233348;28;20292;-78
2023/05/26 16:28:35;;;;;;;4.53;1.50;;;;;;;;;;6214527;28;20364;-80
2023/05/26 16:31:40;;;;;;;3.30;1.52;;;;;;;;;;6212912;28;20274;-78
2023/05/26 16:34:46;;;;;;;1.35;1.27;;;;;;;;;;6221806;28;20309;-79
2023/05/26 16:37:52;;;;;;;2.33;1.35;;;;;;;;;;6210181;28;20285;-78
2023/05/26 16:40:58;;;;;;;6.10;1.20;;;;;;;;;;6229177;28;20312;-78
2023/05/26 16:44:03;;;;;;;1.67;1.23;;;;;;;;;;6213323;28;20302;-78
2023/05/26 16:47:11;;;;;;;7.25;1.30;;;;;;;;;;6210569;28;20297;-79
2023/05/26 16:50:18;;;;;;;3.42;1.17;;;;;;;;;;6209185;28;20308;-79
2023/05/26 16:53:23;;;;;;;4.22;1.27;;;;;;;;;;6208607;28;20336;-78
2023/05/26 16:56:28;;;;;;;2.40;1.23;;;;;;;;;;6210374;28;20292;-79
2023/05/26 16:59:33;;;;;;;2.85;1.10;;;;;;;;;;6210096;28;20301;-79
2023/05/26 17:02:38;;;;;;;1.33;1.27;;;;;;;;;;6213606;28;20297;-79
2023/05/26 17:05:45;;;;;;;4.85;1.30;;;;;;;;;;6210174;28;20533;-78
2023/05/26 17:08:50;;;;;;;1.50;1.40;;;;;;;;;;6209608;28;20291;-79
2023/05/26 17:11:56;;;;;;;1.27;1.27;;;;;;;;;;6210852;28;20293;-80
2023/05/26 17:15:02;;;;;;;3.53;1.33;;;;;;;;;;6214708;28;20296;-78
2023/05/26 17:18:07;;;;;;;1.33;1.30;;;;;;;;;;6214487;28;20300;-78
2023/05/26 17:21:15;;;;;;;3.60;1.95;;;;;;;;;;6224174;28;20293;-78
2023/05/26 17:24:20;;;;;;;9.07;2.10;;;;;;;;;;6224379;28;20608;-79
2023/05/26 17:27:26;;;;;;;1.88;1.83;;;;;;;;;;6222466;28;20289;-81
2023/05/26 17:30:31;;;;;;;6.63;2.05;;;;;;;;;;6216849;28;20293;-80
2023/05/26 17:33:36;;;;;;;1.67;1.30;;;;;;;;;;6218201;28;20293;-78
2023/05/26 17:36:43;;;;;;;4.50;1.52;;;;;;;;;;6219726;28;20301;-79
2023/05/26 17:39:49;;;;;;;7.88;1.67;;;;;;;;;;6227993;28;20490;-79
2023/05/26 17:42:54;;;;;;;3.83;1.70;;;;;;;;;;6216792;28;20300;-78
2023/05/26 17:45:59;;;;;;;8.65;1.40;;;;;;;;;;6216673;28;20297;-79
2023/05/26 17:49:05;;;;;;;1.83;1.10;;;;;;;;;;6213723;28;20304;-78
2023/05/26 17:52:12;;;;;;;3.38;1.45;;;;;;;;;;6213987;28;20354;-78
2023/05/26 17:55:19;;;;;;;2.33;1.52;;;;;;;;;;6213462;28;20300;-79
2023/05/26 17:58:24;;;;;;;3.85;1.55;;;;;;;;;;6213117;28;20293;-78
2023/05/26 18:01:29;;;;;;;4.93;2.33;;;;;;;;;;6212410;28;20372;-78
2023/05/26 18:04:35;;;;;;;2.03;1.27;;;;;;;;;;6212623;28;20296;-78
2023/05/26 18:07:41;;;;;;;2.08;1.27;;;;;;;;;;6213444;28;20269;-80
2023/05/26 18:10:47;;;;;;;3.80;1.60;;;;;;;;;;6212639;28;20297;-78
2023/05/26 18:13:52;;;;;;;10.40;1.80;;;;;;;;;;6215781;28;20305;-80
2023/05/26 18:16:57;;;;;;;4.65;1.63;;;;;;;;;;6213265;28;20288;-79
2023/05/26 18:20:03;;;;;;;8.23;1.52;;;;;;;;;;6223243;28;20309;-78
2023/05/26 18:23:10;;;;;;;1.77;1.63;;;;;;;;;;6213770;28;20306;-79
2023/05/26 18:26:16;;;;;;;6.13;1.60;;;;;;;;;;6229372;28;20305;-80
2023/05/26 18:29:22;;;;;;;11.75;3.45;;;;;;;;;;6215678;28;20304;-78
2023/05/26 18:32:27;;;;;;;13.57;2.97;;;;;;;;;;6212460;28;20300;-80
2023/05/26 18:35:32;;;;;;;4.38;1.52;;;;;;;;;;6224102;28;20375;-77
2023/05/26 18:38:39;;;;;;;2.35;2.00;;;;;;;;;;6217011;28;20368;-77
2023/05/26 18:41:45;;;;;;;9.52;2.22;;;;;;;;;;6226029;28;20488;-79